createdAt,value
2023-01-06T00:03:09.588Z,8.87
2023-01-06T00:10:11.430Z,8.78
2023-01-06T00:17:13.581Z,8.83
2023-01-06T00:24:16.153Z,8.87
2023-01-06T01:01:50.623Z,8.78
2023-01-06T01:08:56.891Z,8.67
2023-01-06T01:16:06.431Z,8.61
2023-01-06T01:23:08.125Z,8.39
2023-01-06T01:30:10.343Z,8.45
2023-01-06T01:37:12.273Z,8.36
2023-01-06T01:44:47.791Z,8.44
2023-01-06T01:51:49.510Z,8.45
2023-01-06T01:59:05.354Z,8.52
2023-01-06T02:06:23.121Z,8.48
2023-01-06T02:13:26.289Z,8.55
2023-01-06T02:20:48.798Z,8.44
2023-01-06T02:28:40.045Z,8.47
2023-01-06T02:36:20.680Z,8.55
2023-01-06T02:43:29.796Z,8.46
2023-01-06T02:50:38.700Z,8.47
2023-01-06T02:57:57.748Z,8.27
2023-01-06T03:05:02.165Z,8.31
2023-01-06T03:12:22.275Z,8.35
2023-01-06T03:19:25.696Z,8.22
2023-01-06T03:26:27.876Z,8.06
2023-01-06T03:33:48.304Z,8.17
2023-01-06T03:40:55.915Z,8.17
2023-01-06T03:48:23.777Z,8.08
2023-01-06T03:55:26.942Z,8.10
2023-01-06T04:02:28.640Z,8.10
2023-01-06T04:09:30.424Z,8.00
2023-01-06T04:16:32.161Z,7.91
2023-01-06T04:23:34.229Z,8.11
2023-01-06T04:30:40.080Z,7.99
2023-01-06T04:37:41.807Z,8.04
2023-01-06T04:44:43.484Z,7.98
2023-01-06T04:51:45.172Z,7.97
2023-01-06T04:58:47.003Z,8.07
2023-01-06T05:05:48.644Z,7.94
2023-01-06T05:12:50.231Z,7.76
2023-01-06T05:19:51.841Z,7.95
2023-01-06T05:26:54.930Z,7.98
2023-01-06T05:33:56.569Z,7.92
2023-01-06T05:40:58.269Z,8.08
2023-01-06T05:48:02.167Z,8.03
2023-01-06T05:55:04.117Z,8.07
2023-01-06T06:02:05.845Z,8.17
2023-01-06T06:09:07.593Z,8.01
2023-01-06T06:16:10.755Z,8.03
2023-01-06T06:23:12.423Z,7.99
2023-01-06T06:30:14.126Z,8.13
2023-01-06T06:37:15.808Z,8.20
2023-01-06T06:44:17.403Z,8.12
2023-01-06T06:51:20.853Z,8.03
2023-01-06T06:58:22.720Z,8.28
2023-01-06T07:05:25.632Z,8.12
2023-01-06T07:12:39.666Z,8.13
2023-01-06T07:19:41.349Z,8.15
2023-01-06T07:26:43.097Z,8.25
2023-01-06T07:33:44.853Z,8.40
2023-01-06T07:40:46.523Z,8.38
2023-01-06T07:47:48.089Z,8.22
2023-01-06T07:54:49.677Z,8.23
2023-01-06T08:01:51.400Z,8.47
2023-01-06T08:08:53.136Z,8.70
2023-01-06T08:15:54.801Z,8.63
2023-01-06T08:22:57.851Z,8.45
2023-01-06T08:29:59.627Z,8.67
2023-01-06T08:37:01.311Z,8.56
2023-01-06T08:44:02.942Z,8.58
2023-01-06T08:51:12.568Z,8.77
2023-01-06T08:58:14.267Z,8.89
2023-01-06T09:05:15.892Z,8.86
2023-01-06T09:12:17.633Z,8.85
2023-01-06T09:19:20.501Z,9.14
2023-01-06T09:26:22.190Z,8.85
2023-01-06T09:33:23.791Z,9.08
2023-01-06T09:40:58.299Z,9.17
2023-01-06T09:47:59.963Z,9.36
2023-01-06T09:55:07.799Z,9.51
2023-01-06T10:02:14.517Z,9.53
2023-01-06T10:09:28.578Z,9.47
2023-01-06T10:16:57.780Z,9.69
2023-01-06T10:24:23.859Z,9.79
2023-01-06T10:31:27.938Z,9.85
2023-01-06T10:38:35.708Z,9.87
2023-01-06T10:45:39.851Z,10.18
2023-01-06T10:52:41.983Z,10.20
2023-01-06T11:00:19.012Z,10.30
2023-01-06T11:07:20.785Z,10.52
2023-01-06T11:14:25.327Z,10.77
2023-01-06T11:21:44.277Z,10.81
2023-01-06T11:28:47.899Z,10.85
2023-01-06T11:35:49.754Z,11.03
2023-01-06T11:42:59.497Z,10.90
2023-01-06T11:50:01.340Z,11.09
2023-01-06T11:57:31.127Z,11.02
2023-01-06T12:04:49.761Z,11.13
2023-01-06T12:11:53.464Z,11.30
2023-01-06T12:18:55.168Z,11.60
2023-01-06T12:25:58.420Z,11.77
2023-01-06T12:33:16.027Z,12.02
2023-01-06T12:40:55.236Z,12.02
2023-01-06T12:47:57.597Z,12.07
2023-01-06T12:54:59.233Z,12.37
2023-01-06T13:02:19.369Z,12.37
2023-01-06T13:09:50.294Z,12.38
2023-01-06T13:17:25.762Z,12.48
2023-01-06T13:24:49.188Z,12.56
2023-01-06T13:32:07.585Z,12.66
2023-01-06T13:39:09.091Z,12.82
2023-01-06T13:46:12.134Z,12.78
2023-01-06T13:53:19.367Z,12.80
2023-01-06T14:00:24.835Z,12.85
2023-01-06T14:07:36.122Z,13.02
2023-01-06T14:14:38.573Z,12.83
2023-01-06T14:21:40.216Z,13.23
2023-01-06T14:28:41.843Z,12.88
2023-01-06T14:35:44.293Z,13.06
2023-01-06T14:42:46.091Z,12.97
2023-01-06T14:49:56.516Z,12.93
2023-01-06T14:57:00.047Z,12.96
2023-01-06T15:04:02.330Z,13.20
2023-01-06T15:11:26.584Z,13.24
2023-01-06T15:18:28.287Z,13.09
2023-01-06T15:25:30.531Z,12.75
2023-01-06T15:32:32.709Z,12.91
2023-01-06T15:39:35.225Z,12.75
2023-01-06T15:46:40.907Z,12.74
2023-01-06T15:53:42.716Z,12.49
2023-01-06T16:00:48.089Z,12.60
2023-01-06T16:07:50.183Z,12.82
2023-01-06T16:14:51.871Z,12.90
2023-01-06T16:21:53.951Z,12.91
2023-01-06T16:28:57.244Z,12.95
2023-01-06T16:35:59.299Z,12.46
2023-01-06T16:43:01.847Z,12.39
2023-01-06T16:50:26.672Z,12.37
2023-01-06T16:57:28.340Z,12.51
2023-01-06T17:04:30.079Z,12.53
2023-01-06T17:11:33.189Z,12.49
2023-01-06T17:18:34.907Z,12.54
2023-01-06T17:25:36.520Z,12.58
2023-01-06T17:32:38.740Z,12.60
2023-01-06T17:39:41.428Z,12.45
2023-01-06T17:46:43.233Z,12.67
2023-01-06T17:54:03.378Z,12.49
2023-01-06T18:01:09.158Z,12.53
2023-01-06T18:08:14.246Z,12.42
2023-01-06T18:15:33.522Z,12.61
2023-01-06T18:22:35.249Z,12.38
2023-01-06T18:29:37.974Z,12.39
2023-01-06T18:36:39.740Z,12.52
2023-01-06T18:43:42.489Z,12.53
2023-01-06T18:50:45.254Z,12.38
2023-01-06T18:57:53.598Z,12.54
2023-01-06T19:04:58.274Z,12.42
2023-01-06T19:12:10.388Z,12.33
2023-01-06T19:19:24.319Z,12.33
2023-01-06T19:26:31.836Z,12.59
2023-01-06T19:33:45.861Z,12.36
2023-01-06T19:40:47.634Z,12.24
2023-01-06T19:47:49.296Z,12.30
2023-01-06T19:54:51.069Z,12.22
2023-01-06T20:01:58.301Z,12.15
2023-01-06T20:09:00.125Z,11.99
2023-01-06T20:16:02.415Z,12.18
2023-01-06T20:23:04.212Z,12.12
2023-01-06T20:30:06.317Z,11.90
2023-01-06T20:37:08.152Z,11.89
2023-01-06T20:44:09.799Z,11.81
2023-01-06T20:51:11.576Z,11.97
2023-01-06T20:58:13.291Z,11.88
2023-01-06T21:05:14.951Z,11.87
2023-01-06T21:12:16.695Z,11.88
2023-01-06T21:19:18.546Z,11.94
2023-01-06T21:26:20.300Z,11.80
2023-01-06T21:33:22.157Z,11.94
2023-01-06T21:40:23.894Z,11.80
2023-01-06T21:47:25.575Z,11.78
2023-01-06T21:54:27.359Z,11.70
2023-01-06T22:01:29.834Z,11.71
2023-01-06T22:08:31.553Z,11.62
2023-01-06T22:15:33.199Z,11.62
2023-01-06T22:22:34.900Z,11.57
2023-01-06T22:29:36.749Z,11.55
2023-01-06T22:36:38.405Z,11.70
2023-01-06T22:43:40.029Z,11.66
2023-01-06T22:50:41.693Z,11.53
2023-01-06T22:57:43.342Z,11.41
2023-01-06T23:04:44.940Z,11.47
2023-01-06T23:11:46.743Z,11.56
2023-01-06T23:18:48.864Z,11.52
2023-01-06T23:25:50.491Z,11.33
2023-01-06T23:32:52.366Z,11.43
2023-01-06T23:39:54.538Z,11.37
2023-01-06T23:46:56.320Z,11.42
2023-01-06T23:53:58.936Z,11.27
